Time;durP1;ratioP1;P1;durP2;ratioP2;P2;SDS_P1;SDS_P2;PMS_P1;PMS_P2;Temp;Humidity;BMP_temperature;BMP_pressure;BME280_temperature;BME280_humidity;BME280_pressure;Samples;Min_cycle;Max_cycle;Signal;HPM_P1;HPM_P2
2022/05/10 00:00:25;;;;;;;24.35;12.32;;;15.90;99.90;;;;;;5054770;28;20100;-73
2022/05/10 00:02:54;;;;;;;23.65;12.52;;;15.90;99.90;;;;;;5054488;28;20029;-73
2022/05/10 00:05:25;;;;;;;31.55;12.68;;;15.90;99.90;;;;;;5054596;28;20033;-73
2022/05/10 00:07:51;;;;;;;28.00;13.02;;;16.00;99.90;;;;;;5036736;28;20041;-73
2022/05/10 00:10:17;;;;;;;28.88;12.07;;;15.90;99.90;;;;;;5036726;28;20051;-73
2022/05/10 00:12:42;;;;;;;29.50;12.80;;;16.00;99.90;;;;;;5054106;28;20037;-73
2022/05/10 00:15:09;;;;;;;30.77;11.93;;;16.10;99.90;;;;;;5054413;28;20029;-73
2022/05/10 00:17:38;;;;;;;22.48;11.52;;;16.10;99.90;;;;;;5054301;28;20431;-73
2022/05/10 00:20:08;;;;;;;31.50;13.00;;;16.10;99.90;;;;;;5054324;28;20432;-73
2022/05/10 00:22:35;;;;;;;30.88;11.88;;;16.10;99.90;;;;;;5054072;28;20058;-73
2022/05/10 00:25:01;;;;;;;28.70;12.73;;;16.10;99.90;;;;;;5054026;28;20028;-72
2022/05/10 00:27:26;;;;;;;25.88;12.48;;;16.30;99.90;;;;;;5054030;28;20021;-72
2022/05/10 00:29:52;;;;;;;22.92;11.40;;;16.20;99.90;;;;;;5054143;28;20040;-72
2022/05/10 00:32:18;;;;;;;26.58;12.93;;;16.20;99.90;;;;;;5053882;28;20099;-72
2022/05/10 00:34:45;;;;;;;20.25;12.15;;;16.10;99.90;;;;;;5054025;28;20166;-72
2022/05/10 00:37:12;;;;;;;26.60;11.93;;;16.20;99.90;;;;;;5053949;28;20037;-72
2022/05/10 00:39:38;;;;;;;23.67;11.77;;;16.10;99.90;;;;;;5053667;28;20040;-72
2022/05/10 00:42:13;;;;;;;23.23;12.10;;;16.10;99.90;;;;;;5053773;28;20021;-73
2022/05/10 00:44:45;;;;;;;27.85;12.30;;;16.10;99.90;;;;;;5053835;28;20033;-72
2022/05/10 00:47:28;;;;;;;24.27;12.55;;;16.10;99.90;;;;;;5053483;28;20478;-72
2022/05/10 00:50:24;;;;;;;29.38;12.70;;;16.20;99.90;;;;;;5053806;28;20090;-73
2022/05/10 00:52:59;;;;;;;30.20;13.15;;;16.20;99.90;;;;;;5053773;28;20029;-72
2022/05/10 00:55:30;;;;;;;26.83;12.95;;;16.20;99.90;;;;;;5053444;28;20036;-72
2022/05/10 00:58:35;;;;;;;30.52;12.90;;;16.10;99.90;;;;;;5053415;28;20036;-72
2022/05/10 01:01:02;;;;;;;26.73;12.73;;;16.00;99.90;;;;;;5053567;28;20025;-73
2022/05/10 01:04:11;;;;;;;28.65;12.52;;;15.80;99.90;;;;;;5053239;28;20492;-73
2022/05/10 01:06:46;;;;;;;25.67;13.30;;;16.00;99.90;;;;;;5040211;28;20509;-73
2022/05/10 01:09:23;;;;;;;23.35;12.20;;;16.00;99.90;;;;;;5035924;28;20036;-72
2022/05/10 01:12:05;;;;;;;26.13;13.13;;;16.10;99.90;;;;;;5053309;28;20048;-72
2022/05/10 01:14:31;;;;;;;26.42;12.32;;;16.10;99.90;;;;;;5053142;28;20029;-72
2022/05/10 01:16:56;;;;;;;24.55;12.13;;;15.80;99.90;;;;;;5053303;28;20497;-72
2022/05/10 01:19:22;;;;;;;23.27;12.77;;;16.10;99.90;;;;;;5053234;28;20025;-72
2022/05/10 01:22:10;;;;;;;27.38;11.85;;;16.00;99.90;;;;;;5053118;28;20381;-73
2022/05/10 01:25:23;;;;;;;23.05;12.40;;;16.00;99.90;;;;;;5052828;28;20021;-72
2022/05/10 01:28:11;;;;;;;28.23;13.35;;;15.90;99.90;;;;;;5044311;28;20049;-73
2022/05/10 01:30:38;;;;;;;25.33;12.52;;;16.00;99.90;;;;;;5034996;28;20060;-72
2022/05/10 01:36:05;;;;;;;25.00;12.25;;;15.80;99.90;;;;;;5052960;28;20036;-73
2022/05/10 01:38:36;;;;;;;23.25;13.57;;;15.90;99.90;;;;;;5045549;28;20033;-73
2022/05/10 01:41:23;;;;;;;21.60;12.75;;;15.90;99.90;;;;;;5032961;28;20029;-72
2022/05/10 01:43:58;;;;;;;23.00;12.25;;;15.80;99.90;;;;;;5015027;28;20061;-73
2022/05/10 01:46:27;;;;;;;25.45;12.18;;;15.90;99.90;;;;;;5035188;28;20500;-72
2022/05/10 01:49:10;;;;;;;26.80;11.90;;;15.90;99.90;;;;;;5052742;28;20033;-73
2022/05/10 01:51:48;;;;;;;29.90;12.55;;;15.90;99.90;;;;;;5052900;28;20053;-72
2022/05/10 01:54:41;;;;;;;29.08;13.02;;;16.00;99.90;;;;;;5052354;28;20068;-73
2022/05/10 01:57:16;;;;;;;27.60;13.63;;;16.00;99.90;;;;;;5052788;28;20036;-72
2022/05/10 01:59:55;;;;;;;31.77;13.48;;;15.90;99.90;;;;;;5034939;28;20029;-72
2022/05/10 02:02:25;;;;;;;26.38;12.88;;;16.00;99.90;;;;;;5034901;28;20537;-73
2022/05/10 02:04:55;;;;;;;24.98;12.77;;;15.90;99.90;;;;;;5032559;28;20064;-73
2022/05/10 02:07:24;;;;;;;26.65;13.27;;;16.00;99.90;;;;;;5032496;28;20043;-72
2022/05/10 02:09:59;;;;;;;27.80;12.68;;;16.00;99.90;;;;;;5032846;28;20393;-73
2022/05/10 02:12:34;;;;;;;27.02;13.27;;;16.20;99.90;;;;;;5036468;28;20033;-72
2022/05/10 02:15:18;;;;;;;20.25;12.98;;;16.00;99.90;;;;;;5036615;28;20038;-73
2022/05/10 02:17:57;;;;;;;32.90;12.90;;;16.10;99.90;;;;;;5002843;28;20025;-72
2022/05/10 02:20:34;;;;;;;27.08;13.82;;;16.00;99.90;;;;;;5036504;28;20040;-72
2022/05/10 02:23:07;;;;;;;32.03;13.07;;;16.00;99.90;;;;;;5041440;28;20021;-73
2022/05/10 02:25:39;;;;;;;34.50;13.63;;;16.00;99.90;;;;;;5056468;28;20037;-72
2022/05/10 02:28:41;;;;;;;32.03;13.20;;;15.90;99.90;;;;;;5056410;28;20029;-73
2022/05/10 02:31:13;;;;;;;33.92;14.10;;;16.00;99.90;;;;;;5056106;28;20056;-72
2022/05/10 02:33:40;;;;;;;;;;;16.00;99.90;;;;;;5056729;28;20064;-72
2022/05/10 02:36:05;;;;;;;29.20;12.95;;;16.00;99.90;;;;;;5056116;28;19909;-72
2022/05/10 02:38:37;;;;;;;33.80;13.48;;;16.00;99.90;;;;;;5038280;28;20037;-72
2022/05/10 02:41:12;;;;;;;30.77;13.07;;;16.10;99.90;;;;;;5038054;28;20086;-72
2022/05/10 02:43:56;;;;;;;33.20;13.45;;;16.10;99.90;;;;;;5056200;28;20496;-72
2022/05/10 02:46:25;;;;;;;33.20;14.07;;;16.10;99.90;;;;;;5053182;28;20543;-72
2022/05/10 02:48:52;;;;;;;34.08;12.15;;;16.10;99.90;;;;;;5018358;28;20490;-72
2022/05/10 02:51:18;;;;;;;23.85;11.75;;;16.10;99.90;;;;;;5035503;28;20037;-72
2022/05/10 02:53:44;;;;;;;27.88;12.35;;;16.20;99.90;;;;;;5036044;28;20022;-72
2022/05/10 02:56:19;;;;;;;30.00;13.23;;;16.30;99.90;;;;;;5045661;28;20429;-72
2022/05/10 02:59:00;;;;;;;35.72;12.82;;;16.30;99.90;;;;;;5055780;28;20029;-72
2022/05/10 03:01:41;;;;;;;29.67;12.73;;;16.40;99.90;;;;;;5056008;28;20036;-73
2022/05/10 03:04:09;;;;;;;34.08;12.70;;;16.40;99.90;;;;;;5055630;28;20071;-72
2022/05/10 03:06:36;;;;;;;28.70;12.40;;;16.40;99.90;;;;;;5055259;28;20089;-73
2022/05/10 03:09:02;;;;;;;32.80;13.57;;;16.40;99.90;;;;;;5055705;28;20032;-72
2022/05/10 03:11:28;;;;;;;25.70;12.60;;;16.30;99.90;;;;;;5055477;28;20041;-73
2022/05/10 03:13:55;;;;;;;35.40;12.55;;;16.40;99.90;;;;;;5055603;28;20017;-73
2022/05/10 03:16:23;;;;;;;35.20;13.52;;;16.40;99.90;;;;;;5037623;28;20025;-72
2022/05/10 03:18:49;;;;;;;41.42;14.10;;;16.40;99.90;;;;;;5055683;28;20104;-73
2022/05/10 03:21:15;;;;;;;32.38;13.93;;;16.40;99.90;;;;;;5054828;28;20572;-73
2022/05/10 03:23:41;;;;;;;33.15;14.50;;;16.40;99.90;;;;;;5055401;28;20037;-73
2022/05/10 03:26:13;;;;;;;31.70;13.05;;;16.50;99.90;;;;;;5055331;28;20021;-73
2022/05/10 03:28:39;;;;;;;37.35;14.70;;;16.40;99.90;;;;;;5055272;28;20032;-73
2022/05/10 03:31:06;;;;;;;33.35;13.52;;;16.40;99.90;;;;;;5055066;28;20029;-73
2022/05/10 03:33:32;;;;;;;31.35;13.10;;;16.50;99.90;;;;;;5055247;28;20037;-72
2022/05/10 03:35:58;;;;;;;35.40;13.73;;;16.40;99.90;;;;;;5055381;28;20025;-73
2022/05/10 03:38:23;;;;;;;33.70;14.18;;;16.40;99.90;;;;;;5055099;28;20123;-73
2022/05/10 03:40:49;;;;;;;35.63;14.73;;;16.50;99.90;;;;;;5054541;28;20036;-72
2022/05/10 03:43:15;;;;;;;31.08;13.57;;;16.50;99.90;;;;;;5054887;28;20029;-72
2022/05/10 03:45:40;;;;;;;31.95;13.45;;;16.50;99.90;;;;;;5054932;28;20021;-72
2022/05/10 03:48:07;;;;;;;36.85;14.07;;;16.50;99.90;;;;;;5054452;28;20037;-72
2022/05/10 03:50:33;;;;;;;35.88;14.70;;;16.50;99.90;;;;;;5054743;28;20453;-73
2022/05/10 03:52:59;;;;;;;39.30;13.82;;;16.50;99.90;;;;;;5054722;28;20064;-72
2022/05/10 03:55:27;;;;;;;40.05;13.98;;;16.40;99.90;;;;;;5054888;28;20033;-72
2022/05/10 03:57:53;;;;;;;30.52;13.48;;;16.50;99.90;;;;;;5054650;28;20087;-73
2022/05/10 04:00:26;;;;;;;29.55;13.20;;;16.60;99.90;;;;;;5054693;28;20028;-72
2022/05/10 04:02:54;;;;;;;28.25;12.52;;;16.60;99.90;;;;;;5054116;28;20025;-72
2022/05/10 04:05:20;;;;;;;31.75;12.65;;;16.60;99.90;;;;;;5054607;28;20484;-73
2022/05/10 04:07:46;;;;;;;28.83;12.60;;;16.60;99.90;;;;;;5054559;28;20069;-72
2022/05/10 04:10:13;;;;;;;27.08;11.82;;;16.60;99.90;;;;;;5054388;28;20026;-72
2022/05/10 04:12:40;;;;;;;24.42;11.63;;;16.70;99.90;;;;;;5054463;28;20086;-73
2022/05/10 04:15:09;;;;;;;25.10;11.77;;;16.60;99.90;;;;;;5036613;28;20412;-72
2022/05/10 04:17:35;;;;;;;27.70;12.90;;;16.60;99.90;;;;;;5054113;28;20401;-72
2022/05/10 04:20:01;;;;;;;34.03;13.10;;;16.60;99.90;;;;;;5054312;28;20028;-72
2022/05/10 04:22:27;;;;;;;25.23;11.68;;;16.60;99.90;;;;;;5054131;28;20490;-72
2022/05/10 04:24:52;;;;;;;30.13;11.15;;;16.60;99.90;;;;;;5054312;28;20087;-72
2022/05/10 04:27:18;;;;;;;23.67;10.02;;;16.60;99.90;;;;;;5054195;28;20017;-72
2022/05/10 04:29:44;;;;;;;26.52;11.00;;;16.70;99.90;;;;;;5054078;28;20040;-72
2022/05/10 04:32:09;;;;;;;21.52;11.45;;;16.70;99.90;;;;;;5053710;28;20037;-72
2022/05/10 04:34:37;;;;;;;26.98;10.40;;;16.70;99.90;;;;;;5053395;28;20029;-72
2022/05/10 04:37:03;;;;;;;21.75;10.63;;;16.70;99.90;;;;;;5053995;28;20142;-73
2022/05/10 04:41:24;;;;;;;22.48;10.55;;;16.90;99.90;;;;;;5053992;28;20060;-73
2022/05/10 04:42:14;;;;;;;22.25;10.82;;;16.90;99.90;;;;;;5053785;28;20028;-72
2022/05/10 04:44:40;;;;;;;30.23;11.30;;;16.90;99.90;;;;;;5053835;28;20029;-73
2022/05/10 04:47:06;;;;;;;21.52;10.32;;;16.80;99.90;;;;;;5053297;28;20065;-72
2022/05/10 04:49:32;;;;;;;22.73;10.40;;;16.80;99.90;;;;;;5053641;28;20025;-72
2022/05/10 04:51:57;;;;;;;28.42;10.75;;;16.80;99.90;;;;;;5053611;28;20029;-72
2022/05/10 04:54:23;;;;;;;18.85;10.35;;;16.80;99.90;;;;;;5053517;28;20098;-72
2022/05/10 04:56:48;;;;;;;31.88;11.45;;;16.90;99.90;;;;;;5053558;28;20175;-73
2022/05/10 04:59:14;;;;;;;21.70;10.65;;;16.80;99.90;;;;;;5053587;28;20077;-72
2022/05/10 05:01:40;;;;;;;22.17;10.48;;;16.90;99.90;;;;;;5053289;28;20032;-72
2022/05/10 05:04:06;;;;;;;21.05;9.63;;;17.00;99.90;;;;;;5053239;28;20039;-72
2022/05/10 05:06:34;;;;;;;19.73;10.25;;;16.90;99.90;;;;;;5053501;28;20033;-72
2022/05/10 05:09:00;;;;;;;23.85;9.82;;;17.10;99.90;;;;;;5053253;28;20086;-72
2022/05/10 05:11:26;;;;;;;21.45;9.98;;;17.00;99.90;;;;;;5053299;28;20452;-72
2022/05/10 05:13:52;;;;;;;24.33;9.35;;;17.10;99.90;;;;;;5053367;28;20382;-72
2022/05/10 05:16:18;;;;;;;20.85;10.00;;;17.00;99.90;;;;;;5035090;28;20091;-72
2022/05/10 05:18:45;;;;;;;22.55;10.55;;;17.00;99.90;;;;;;5053176;28;20442;-72
2022/05/10 05:21:11;;;;;;;17.83;9.70;;;17.10;99.90;;;;;;5053178;28;20053;-72
2022/05/10 05:23:37;;;;;;;23.83;10.85;;;17.20;99.90;;;;;;5053152;28;20493;-73
2022/05/10 05:26:03;;;;;;;24.75;9.60;;;17.20;99.90;;;;;;5044757;28;20037;-72
2022/05/10 05:28:29;;;;;;;26.23;10.05;;;17.30;99.90;;;;;;5033050;28;20017;-72
2022/05/10 05:30:55;;;;;;;29.88;10.55;;;17.30;99.90;;;;;;5032626;28;20438;-73
2022/05/10 05:33:21;;;;;;;30.67;9.45;;;17.40;99.90;;;;;;5032944;28;20064;-72
2022/05/10 05:35:47;;;;;;;21.13;11.13;;;17.40;99.90;;;;;;5015523;28;20536;-72
2022/05/10 05:38:13;;;;;;;23.90;9.23;;;17.40;99.90;;;;;;5033052;28;20030;-72
2022/05/10 05:40:38;;;;;;;30.95;9.82;;;17.50;99.90;;;;;;5015187;28;20033;-72
2022/05/10 05:43:06;;;;;;;22.17;9.07;;;17.40;99.90;;;;;;5033042;28;20030;-72
2022/05/10 05:45:31;;;;;;;16.92;8.82;;;17.50;99.90;;;;;;5032601;28;20053;-72
2022/05/10 05:48:01;;;;;;;19.20;9.30;;;17.40;99.90;;;;;;5048381;28;20057;-73
2022/05/10 05:50:27;;;;;;;18.60;9.27;;;17.50;99.90;;;;;;5052643;28;20041;-73
2022/05/10 05:52:53;;;;;;;32.72;9.40;;;17.60;99.90;;;;;;5052614;28;20382;-72
2022/05/10 05:55:20;;;;;;;30.70;9.00;;;17.60;99.90;;;;;;5052616;28;20438;-73
2022/05/10 05:57:46;;;;;;;28.65;9.25;;;17.70;99.90;;;;;;5052697;28;20076;-73
2022/05/10 06:00:18;;;;;;;17.60;9.13;;;17.80;99.90;;;;;;5052289;28;20024;-73
2022/05/10 06:02:44;;;;;;;21.40;8.82;;;17.80;99.90;;;;;;5043645;28;20041;-72
2022/05/10 06:05:10;;;;;;;15.88;8.57;;;17.90;99.90;;;;;;5035823;28;20098;-73
2022/05/10 06:07:36;;;;;;;13.80;8.05;;;17.90;99.90;;;;;;5051924;28;20541;-72
2022/05/10 06:10:02;;;;;;;21.48;8.45;;;18.00;99.90;;;;;;5040074;28;20421;-72
2022/05/10 06:12:28;;;;;;;33.90;9.55;;;18.10;99.90;;;;;;5047109;28;20119;-73
2022/05/10 06:14:55;;;;;;;27.67;9.85;;;18.10;99.90;;;;;;5017056;28;20021;-72
2022/05/10 06:17:21;;;;;;;17.27;9.18;;;18.10;99.90;;;;;;5045960;28;20044;-73
2022/05/10 06:19:47;;;;;;;19.55;9.10;;;18.10;99.90;;;;;;5041207;28;20071;-73
2022/05/10 06:22:13;;;;;;;18.58;9.05;;;18.30;99.90;;;;;;5038638;28;20049;-72
2022/05/10 06:24:40;;;;;;;15.07;7.88;;;18.30;99.90;;;;;;5048298;28;20036;-73
2022/05/10 06:27:11;;;;;;;19.08;10.40;;;18.30;99.90;;;;;;5035772;28;20115;-73
2022/05/10 06:29:37;;;;;;;18.95;8.20;;;18.40;99.90;;;;;;5043367;28;20076;-73
2022/05/10 06:32:03;;;;;;;24.55;8.30;;;18.50;99.90;;;;;;5043207;28;20118;-73
2022/05/10 06:34:28;;;;;;;16.20;8.23;;;18.60;99.90;;;;;;5018357;28;20559;-73
2022/05/10 06:36:54;;;;;;;15.82;8.18;;;18.70;99.90;;;;;;5048293;28;20116;-72
2022/05/10 06:39:20;;;;;;;16.60;7.72;;;18.80;99.90;;;;;;5037621;28;20108;-73
2022/05/10 06:41:45;;;;;;;14.32;7.75;;;19.00;99.90;;;;;;5041952;28;20021;-73
2022/05/10 06:44:11;;;;;;;12.98;7.88;;;19.10;99.90;;;;;;5044346;28;20032;-73
2022/05/10 06:46:37;;;;;;;15.80;7.93;;;19.10;99.90;;;;;;5039540;28;20440;-73
2022/05/10 06:49:04;;;;;;;18.25;8.07;;;19.10;99.90;;;;;;5031652;28;20021;-73
2022/05/10 06:51:30;;;;;;;16.60;7.93;;;19.30;99.90;;;;;;5038507;28;20044;-72
2022/05/10 06:53:57;;;;;;;18.73;8.60;;;19.20;99.90;;;;;;5040637;28;20186;-73
2022/05/10 06:56:23;;;;;;;18.58;7.85;;;19.20;99.90;;;;;;5038405;28;20120;-72
2022/05/10 06:58:49;;;;;;;17.65;8.98;;;19.20;99.90;;;;;;5051504;28;20013;-72
2022/05/10 07:01:15;;;;;;;26.88;8.35;;;19.20;99.90;;;;;;5040041;28;20055;-72
2022/05/10 07:03:46;;;;;;;16.92;7.93;;;19.30;99.90;;;;;;5020081;28;20025;-73
2022/05/10 07:06:16;;;;;;;13.07;8.15;;;19.40;99.90;;;;;;5054567;28;20091;-73
2022/05/10 07:08:42;;;;;;;15.13;8.18;;;19.40;99.90;;;;;;5042376;28;20039;-72
2022/05/10 07:11:09;;;;;;;13.57;8.05;;;19.30;99.90;;;;;;5054619;28;20116;-73
2022/05/10 07:13:35;;;;;;;24.88;8.52;;;19.40;99.90;;;;;;5045489;28;20447;-72
2022/05/10 07:16:02;;;;;;;14.13;7.35;;;19.60;99.90;;;;;;5048320;28;20029;-73
2022/05/10 07:18:28;;;;;;;12.88;8.52;;;19.70;99.90;;;;;;5054621;28;20492;-72
2022/05/10 07:20:54;;;;;;;12.77;8.10;;;19.70;99.90;;;;;;5049837;28;20033;-72
2022/05/10 07:23:22;;;;;;;11.50;8.05;;;19.70;99.90;;;;;;5037032;28;20428;-71
2022/05/10 07:25:48;;;;;;;15.65;8.63;;;19.80;99.90;;;;;;5051025;28;20118;-73
2022/05/10 07:28:13;;;;;;;14.82;7.85;;;19.80;99.90;;;;;;5054332;28;20477;-75
2022/05/10 07:30:39;;;;;;;12.65;8.18;;;19.80;99.90;;;;;;5036330;28;20040;-75
2022/05/10 07:33:06;;;;;;;12.35;7.95;;;20.00;99.90;;;;;;5048417;28;20057;-75
2022/05/10 07:38:23;;;;;;;10.65;7.50;;;20.00;99.90;;;;;;5045932;28;20104;-74
2022/05/10 07:40:53;;;;;;;11.73;7.13;;;20.20;99.90;;;;;;5038311;28;20036;-74
2022/05/10 07:43:20;;;;;;;11.98;7.32;;;20.20;99.90;;;;;;5029264;28;20018;-75
2022/05/10 07:45:51;;;;;;;12.73;7.53;;;20.30;99.90;;;;;;5045592;28;20059;-75
2022/05/10 07:48:17;;;;;;;9.70;6.88;;;20.40;99.90;;;;;;5038789;28;20028;-77
2022/05/10 07:50:44;;;;;;;10.07;6.72;;;20.50;99.90;;;;;;5034899;28;20120;-76
2022/05/10 07:53:12;;;;;;;10.95;6.72;;;20.30;99.90;;;;;;5035360;28;20521;-75
2022/05/10 07:55:37;;;;;;;17.40;7.20;;;20.40;99.90;;;;;;5034534;28;20033;-75
2022/05/10 07:58:04;;;;;;;15.18;6.93;;;20.50;99.90;;;;;;5034846;28;20040;-75
2022/05/10 08:00:31;;;;;;;15.00;7.75;;;20.70;99.90;;;;;;5034683;28;20029;-75
2022/05/10 08:02:57;;;;;;;22.23;7.40;;;20.50;99.90;;;;;;5039181;28;20071;-76
2022/05/10 08:05:25;;;;;;;10.52;6.60;;;20.60;99.90;;;;;;5053259;28;20037;-76
2022/05/10 08:07:51;;;;;;;11.63;6.82;;;20.60;99.90;;;;;;5053895;28;20084;-75
2022/05/10 08:10:18;;;;;;;15.95;6.78;;;20.80;99.90;;;;;;5051862;28;20381;-75
2022/05/10 08:12:43;;;;;;;17.73;6.97;;;20.80;99.90;;;;;;5054096;28;20025;-76
2022/05/10 08:15:13;;;;;;;11.63;6.85;;;20.70;99.90;;;;;;5054606;28;20033;-76
2022/05/10 08:17:39;;;;;;;15.35;7.63;;;20.70;99.90;;;;;;5054528;28;20031;-76
2022/05/10 08:20:07;;;;;;;15.70;6.88;;;20.90;99.90;;;;;;5054189;28;20017;-75
2022/05/10 08:22:33;;;;;;;12.63;6.25;;;21.10;99.50;;;;;;5054249;28;20120;-75
2022/05/10 08:25:00;;;;;;;14.48;6.30;;;21.30;99.50;;;;;;5054125;28;20099;-75
2022/05/10 08:27:26;;;;;;;20.35;6.40;;;21.60;98.10;;;;;;5054078;28;20103;-75
2022/05/10 08:29:51;;;;;;;13.40;7.03;;;21.80;98.50;;;;;;5054029;28;20044;-76
2022/05/10 08:32:17;;;;;;;15.85;7.07;;;21.60;97.70;;;;;;5053886;28;20041;-75
2022/05/10 08:34:43;;;;;;;16.27;6.45;;;21.70;97.80;;;;;;5036394;28;20053;-75
2022/05/10 08:37:09;;;;;;;14.73;6.50;;;21.80;98.40;;;;;;5036223;28;20495;-74
2022/05/10 08:39:35;;;;;;;16.05;7.00;;;21.70;98.00;;;;;;5019473;28;20033;-74
2022/05/10 08:42:17;;;;;;;16.25;6.63;;;21.60;97.20;;;;;;5053935;28;20029;-75
2022/05/10 08:44:56;;;;;;;14.52;5.95;;;21.30;97.90;;;;;;5053947;28;20021;-75
2022/05/10 08:47:23;;;;;;;10.60;6.10;;;21.40;98.20;;;;;;5053405;28;20026;-75
2022/05/10 08:49:54;;;;;;;7.85;5.65;;;21.70;98.10;;;;;;5053597;28;20373;-75
2022/05/10 08:52:26;;;;;;;11.80;6.73;;;21.90;96.90;;;;;;5035817;28;20085;-74
2022/05/10 08:54:51;;;;;;;19.70;6.50;;;22.10;96.90;;;;;;5053382;28;20279;-75
2022/05/10 08:57:49;;;;;;;19.95;5.95;;;21.80;96.60;;;;;;5053521;28;20039;-75
2022/05/10 09:00:19;;;;;;;11.93;5.75;;;21.70;97.50;;;;;;5053862;28;20424;-75
2022/05/10 09:02:49;;;;;;;20.63;6.80;;;22.00;97.50;;;;;;5053881;28;20032;-75
2022/05/10 09:05:41;;;;;;;16.55;6.18;;;22.10;97.40;;;;;;5053527;28;20551;-75
2022/05/10 09:08:35;;;;;;;8.70;6.20;;;22.20;96.70;;;;;;5054571;28;20040;-75
2022/05/10 09:11:03;;;;;;;11.52;6.25;;;22.30;96.00;;;;;;5036343;28;20546;-75
2022/05/10 09:13:30;;;;;;;8.18;5.05;;;22.30;96.50;;;;;;5054014;28;20075;-74
2022/05/10 09:16:02;;;;;;;8.27;4.88;;;22.10;96.60;;;;;;5053510;28;20020;-76
2022/05/10 09:18:35;;;;;;;17.15;6.50;;;22.50;96.90;;;;;;5053496;28;20025;-75
2022/05/10 09:21:25;;;;;;;13.18;5.47;;;22.80;96.40;;;;;;5053316;28;20116;-75
2022/05/10 09:24:24;;;;;;;9.48;5.63;;;22.80;96.20;;;;;;5053309;28;20440;-75
2022/05/10 09:26:57;;;;;;;11.48;5.55;;;22.80;96.60;;;;;;5018957;28;20021;-76
2022/05/10 09:29:33;;;;;;;15.55;6.20;;;23.20;96.30;;;;;;5053059;28;20060;-74
2022/05/10 09:35:10;;;;;;;10.15;6.03;;;23.40;96.00;;;;;;5053197;28;20453;-75
2022/05/10 09:37:49;;;;;;;9.90;5.80;;;23.40;96.00;;;;;;5053009;28;20048;-76
2022/05/10 09:40:42;;;;;;;13.40;5.47;;;23.60;95.60;;;;;;5052879;28;20091;-76
2022/05/10 09:43:32;;;;;;;19.75;5.97;;;24.00;95.10;;;;;;5053125;28;20429;-74
2022/05/10 09:46:23;;;;;;;15.20;5.72;;;24.10;94.60;;;;;;5052851;28;20075;-76
2022/05/10 09:48:48;;;;;;;10.95;4.75;;;23.70;94.90;;;;;;5032912;28;20034;-76
2022/05/10 09:51:40;;;;;;;9.68;5.18;;;23.50;94.50;;;;;;5032578;28;20105;-75
2022/05/10 09:54:18;;;;;;;10.23;5.40;;;23.60;94.80;;;;;;5032860;28;20033;-75
2022/05/10 09:56:50;;;;;;;14.75;5.22;;;24.10;94.80;;;;;;5032812;28;20124;-75
2022/05/10 09:59:22;;;;;;;;;;;24.40;94.70;;;;;;5033168;28;20041;-75
2022/05/10 10:01:50;;;;;;;10.60;4.68;;;24.10;94.50;;;;;;5032899;28;19913;-74
2022/05/10 10:04:26;;;;;;;11.00;4.45;;;23.70;94.10;;;;;;5048172;28;20474;-75
2022/05/10 10:07:18;;;;;;;7.75;4.75;;;24.10;93.80;;;;;;5052516;28;20405;-75
2022/05/10 10:09:47;;;;;;;20.52;5.03;;;24.20;92.70;;;;;;5052292;28;20119;-75
2022/05/10 10:12:29;;;;;;;27.15;5.30;;;24.10;92.40;;;;;;5052667;28;20029;-75
2022/05/10 10:14:55;;;;;;;16.85;4.97;;;23.70;92.60;;;;;;5052571;28;20072;-75
2022/05/10 10:17:24;;;;;;;10.27;4.78;;;23.70;92.60;;;;;;5034671;28;20033;-75
2022/05/10 10:20:12;;;;;;;18.73;4.78;;;24.00;92.30;;;;;;5052131;28;20041;-76
2022/05/10 10:22:49;;;;;;;19.70;5.47;;;24.00;92.40;;;;;;5002399;28;20076;-76
2022/05/10 10:25:28;;;;;;;21.45;5.25;;;24.00;92.30;;;;;;5034542;28;20076;-76
2022/05/10 10:28:15;;;;;;;9.30;4.38;;;24.10;92.10;;;;;;5052603;28;20060;-75
2022/05/10 10:30:59;;;;;;;16.20;4.65;;;24.20;92.30;;;;;;5052764;28;20041;-75
2022/05/10 10:34:01;;;;;;;15.23;4.55;;;24.40;92.00;;;;;;5056225;28;20366;-75
2022/05/10 10:36:39;;;;;;;11.00;3.90;;;23.90;92.50;;;;;;4973095;28;20041;-74
2022/05/10 10:39:23;;;;;;;9.68;4.07;;;23.80;92.30;;;;;;5056257;28;20056;-75
2022/05/10 10:42:21;;;;;;;17.85;4.78;;;23.70;92.60;;;;;;5056186;28;20033;-75
2022/05/10 10:44:55;;;;;;;24.63;4.82;;;23.70;92.30;;;;;;5004655;28;20516;-75
2022/05/10 10:47:28;;;;;;;7.07;3.47;;;23.90;92.10;;;;;;5055799;28;20497;-76
2022/05/10 10:50:17;;;;;;;11.68;4.97;;;23.80;92.30;;;;;;5055667;28;20083;-75
2022/05/10 10:52:43;;;;;;;9.63;4.88;;;23.70;92.30;;;;;;5055905;28;20107;-76
2022/05/10 10:55:10;;;;;;;15.10;4.90;;;23.60;92.30;;;;;;5055802;28;20083;-75
2022/05/10 10:57:41;;;;;;;17.60;4.88;;;23.70;92.40;;;;;;5038009;28;20099;-76
2022/05/10 11:00:09;;;;;;;15.82;4.60;;;24.00;91.90;;;;;;5055557;28;20073;-75
2022/05/10 11:02:47;;;;;;;9.98;4.30;;;24.50;92.00;;;;;;5055700;28;20037;-76
2022/05/10 11:05:50;;;;;;;6.60;4.05;;;24.10;91.80;;;;;;5055472;28;20377;-75
2022/05/10 11:08:28;;;;;;;12.52;3.83;;;24.80;91.50;;;;;;5055526;28;20033;-76
2022/05/10 11:11:30;;;;;;;11.02;5.45;;;25.20;91.30;;;;;;5062578;28;20040;-76
2022/05/10 11:14:24;;;;;;;11.35;4.90;;;25.20;90.90;;;;;;5073450;28;20032;-77
2022/05/10 11:17:03;;;;;;;12.65;4.05;;;25.40;90.50;;;;;;5037562;28;20042;-76
2022/05/10 11:20:11;;;;;;;18.58;4.47;;;25.10;91.10;;;;;;5043488;28;20466;-76
2022/05/10 11:22:51;;;;;;;13.57;4.82;;;24.80;90.30;;;;;;5025280;28;20053;-75
2022/05/10 11:25:43;;;;;;;17.50;5.05;;;24.60;90.90;;;;;;5035509;28;20037;-76
2022/05/10 11:28:26;;;;;;;12.50;4.20;;;24.90;90.80;;;;;;5060578;28;20024;-76
2022/05/10 11:31:15;;;;;;;13.52;3.95;;;25.10;90.70;;;;;;5056940;28;20401;-76
2022/05/10 11:33:56;;;;;;;10.75;3.97;;;24.80;88.30;;;;;;5074878;28;20020;-76
2022/05/10 11:36:25;;;;;;;11.20;3.80;;;24.70;89.10;;;;;;5075632;28;20064;-75
2022/05/10 11:39:03;;;;;;;21.92;4.28;;;24.80;88.50;;;;;;5057134;28;20063;-76
2022/05/10 11:42:13;;;;;;;22.88;3.92;;;24.30;89.70;;;;;;5074885;28;20485;-75
2022/05/10 11:45:04;;;;;;;22.67;5.28;;;24.50;89.10;;;;;;5074622;28;20032;-75
2022/05/10 11:47:36;;;;;;;13.00;3.50;;;24.30;89.70;;;;;;5063009;28;20025;-75
2022/05/10 11:50:14;;;;;;;;;;;24.20;90.10;;;;;;5055214;28;20469;-74
2022/05/10 11:52:58;;;;;;;7.22;3.55;;;24.50;89.90;;;;;;5037026;28;20455;-75
2022/05/10 11:55:57;;;;;;;13.23;4.35;;;24.40;88.50;;;;;;5054672;28;20037;-76
2022/05/10 11:58:26;;;;;;;12.52;4.00;;;24.50;89.00;;;;;;5054524;28;20052;-76
2022/05/10 12:01:00;;;;;;;8.77;3.95;;;24.00;90.00;;;;;;5054783;28;20017;-76
2022/05/10 12:03:43;;;;;;;16.73;3.38;;;23.90;90.00;;;;;;5036996;28;20031;-75
2022/05/10 12:06:24;;;;;;;19.80;4.20;;;24.40;89.10;;;;;;5036684;28;20037;-76
2022/05/10 12:08:59;;;;;;;14.82;4.00;;;24.60;90.30;;;;;;5054499;28;20113;-76
2022/05/10 12:11:27;;;;;;;11.82;3.22;;;24.40;89.20;;;;;;5054576;28;20051;-75
2022/05/10 12:22:19;;;;;;;8.85;2.95;;;25.10;87.60;;;;;;5074067;28;20028;-76
2022/05/10 12:24:47;;;;;;;18.17;3.90;;;24.60;87.20;;;;;;5056271;28;20065;-75
2022/05/10 12:27:12;;;;;;;15.05;3.65;;;24.40;87.90;;;;;;5074045;28;20477;-76
2022/05/10 12:29:38;;;;;;;8.63;3.40;;;24.40;87.50;;;;;;5073970;28;20075;-76
2022/05/10 12:32:23;;;;;;;13.20;3.72;;;24.80;87.60;;;;;;5073512;28;20182;-76
2022/05/10 12:35:04;;;;;;;6.65;3.28;;;25.50;87.00;;;;;;5055780;28;20547;-75
2022/05/10 12:37:48;;;;;;;12.02;3.22;;;25.60;85.50;;;;;;5073784;28;20037;-76
2022/05/10 12:40:19;;;;;;;17.55;3.63;;;25.50;85.90;;;;;;5073856;28;20028;-76
2022/05/10 12:43:31;;;;;;;8.32;3.25;;;24.80;85.50;;;;;;5039074;28;20031;-75
2022/05/10 12:46:04;;;;;;;13.40;3.45;;;24.70;85.80;;;;;;5072625;28;20044;-76
2022/05/10 12:48:48;;;;;;;11.23;3.03;;;25.10;85.20;;;;;;5053573;28;20028;-75
2022/05/10 12:51:38;;;;;;;10.65;3.03;;;25.20;84.90;;;;;;5053847;28;20047;-75
2022/05/10 12:54:09;;;;;;;8.35;3.33;;;25.10;85.70;;;;;;5035100;28;20039;-76
2022/05/10 12:56:55;;;;;;;9.63;3.53;;;25.30;84.80;;;;;;5053481;28;20017;-76
2022/05/10 12:59:48;;;;;;;4.10;2.28;;;25.50;85.40;;;;;;5053006;28;20025;-76
2022/05/10 13:02:15;;;;;;;11.38;3.10;;;25.50;81.60;;;;;;5053497;28;20029;-75
2022/05/10 13:04:45;;;;;;;14.93;3.92;;;25.40;81.70;;;;;;5052568;28;20082;-77
2022/05/10 13:07:30;;;;;;;15.80;2.58;;;25.10;82.00;;;;;;5053186;28;20087;-76
2022/05/10 13:10:21;;;;;;;5.07;2.60;;;25.10;82.00;;;;;;5035246;28;20493;-76
2022/05/10 13:12:57;;;;;;;5.65;2.65;;;25.60;81.70;;;;;;5053171;28;20045;-76
2022/05/10 13:15:24;;;;;;;8.48;2.58;;;25.70;81.70;;;;;;5052814;28;20033;-76
2022/05/10 13:17:54;;;;;;;12.60;2.92;;;25.30;80.80;;;;;;5053294;28;20040;-76
2022/05/10 13:20:27;;;;;;;9.68;3.40;;;24.90;82.00;;;;;;5052990;28;20028;-77